Station info - map view · info · telemetry · weather · raw · status · beacons · messages · bulletins · browse · moving · my account
Callsign, ship name or locator: Clear       
It is possible to search using wildcards (*?) after a prefix. Example: OH*
APRS station KJ6VTV-9 - show graphs
Map loading...
Mic-E message: In service
Location: 45°39.75' N 111°01.29' W - locator DN45LP79KA - show map - static map
1.4 miles Southeast bearing 145° from Bozeman, Gallatin County, Montana, United States [?]
8.3 miles East bearing 74° from Four Corners, Gallatin County, Montana, United States
76.5 miles East bearing 107° from Butte, Silver Bow County, Montana, United States
Last position: 2017-10-15 14:20:20 EDT (5d 21h40m ago)
2017-10-15 12:20:20 MDT local time at Bozeman, United States [?]
Altitude: 5043 ft
Course: 77°
Speed: 9 MPH
Last telemetry: 2014-12-21 23:48:23 EST (1034d 11h12m ago) – show telemetry
Ch 1: 418, Ch 2: 611, Ch 3: 0, Ch 4: 0, Ch 5: 0
 1     2     3     4     5     6     7     8 
Device: Yaesu: FTM-350 (rig)
Last path: KJ6VTV-9>T5SYWU via KL7JGS-1*,WIDE1*,WIDE2-1,qAR,KG7KCV-1 (good)
Positions stored: 40302
Packet rate: 71 seconds between packets on average during 357 seconds.
Stations near current position of KJ6VTV-9 - show more
callsign distance last heard - EDT      callsign distance last heard - EDT
KB7JGS1.4 miles 314°2017-09-27 22:57:22 AF7HG-91.6 miles 187°2017-10-21 08:31:05
KB0NJ-51.8 miles 305°2017-10-06 19:10:45 KE6TBZ1.9 miles 310°2017-10-19 22:44:48
KJ6UGM-92.2 miles 351°2017-10-15 13:56:58 KD7TQM-92.5 miles 332°2017-10-21 11:59:09
WM7D-92.7 miles 285°2017-10-19 23:25:11 KG7OMB-142.7 miles 334°2017-10-16 12:51:15
WA7YD-102.8 miles 339°2017-10-20 18:39:54 KL7JGS-13.1 miles 328°2017-10-21 11:56:11
AC7V-93.7 miles 219°2017-10-20 19:45:12 KD2BII-53.8 miles 290°2017-10-01 21:58:55
CW46695.7 miles 47°2017-10-21 12:00:08 FW16506.7 miles 214°2017-10-21 11:58:05
EW63667.2 miles 212°2017-10-21 11:59:20 KL7JGS-98.4 miles 274°2017-10-07 21:43:44
FW16428.4 miles 337°2017-10-21 11:56:52 DW77349.3 miles 103°2017-10-21 11:50:06
KG7KCV-311.5 miles 23°2017-10-21 11:44:02 KG7KCV-111.6 miles 24°2017-10-18 12:18:42
Stations which heard KJ6VTV-9 directly on radio –
callsign pkts first heard - EDT last heard longest (tx => rx) longest at - EDT
KD7GIZ-10 5 2017-10-07 11:32:08 2017-10-07 11:48:32 DN31XJ > DN31XF 11.0 miles 185° 2017-10-07 11:48:32
SHEPRD 10 2017-10-07 10:05:59 2017-10-07 12:05:59 DN31VQ > DN41BA 50.6 miles 159° 2017-10-07 12:05:59
HARIN 4 2017-10-07 12:25:59 2017-10-07 13:37:05 DN33TE > DN32EH 89.4 miles 228° 2017-10-07 13:37:05
KINPRT 42 2017-10-07 12:53:11 2017-10-07 13:55:30 DN33XM > DN32ST 52.7 miles 204° 2017-10-07 13:55:30
IDAFLS 7 2017-10-07 13:45:56 2017-10-07 13:57:06 DN33VI > DN33XL 12.7 miles 41° 2017-10-07 13:45:56
KK7DO-1 3 2017-10-07 12:02:31 2017-10-07 12:04:29 DN31WP > DN31TP 13.2 miles 260° 2017-10-07 12:02:31
MAUER 1 2017-10-07 14:29:09 2017-10-07 14:29:09 DN43EX > DN34PW 86.4 miles 320° 2017-10-07 14:29:09
WA7FFM-1 8 2017-10-07 10:34:50 2017-10-07 11:34:55 DN31XD > DN40DI 55.8 miles 163° 2017-10-07 11:34:55
N7WFM-2 2 2017-10-07 11:56:29 2017-10-07 12:01:30 DN31WP > DN31XM 10.3 miles 150° 2017-10-07 12:01:30
W7BOZ 10 2017-10-07 11:50:30 2017-10-07 12:45:09 DN32VK > DN41BR 52.3 miles 162° 2017-10-07 12:45:09
AD7UI 5 2017-10-07 13:19:17 2017-10-07 13:23:13 DN32SX > DN32SV 3.7 miles 182° 2017-10-07 13:23:13
EAGLHD 29 2017-10-07 15:23:59 2017-10-07 16:41:17 DN44IQ > DN45KF 38.4 miles 11° 2017-10-07 15:23:59
KF6RAL-2 12 2017-10-07 10:35:56 2017-10-07 11:46:34 DN31XI > DN30XO 50.1 miles 181° 2017-10-07 11:46:34
LGU 12 2017-10-07 12:09:59 2017-10-07 12:30:59 DN32VF > DN31VS 30.5 miles 174° 2017-10-07 12:30:59
WEBER 16 2017-10-07 11:21:19 2017-10-07 12:00:27 DN31WP > DN41AE 31.1 miles 165° 2017-10-07 12:00:27
AK7ME 19 2017-10-07 13:56:00 2017-10-07 14:16:49 DN33XM > DN43CP 14.9 miles 47° 2017-10-07 13:56:00
AF7HG-1 3 2017-10-07 16:42:15 2017-10-07 16:54:04 DN45IL > DN45JS 20.1 miles 8° 2017-10-07 16:42:15
KB7STN-3 12 2017-10-07 10:27:35 2017-10-07 11:33:09 DN31XC > DN30XL 42.2 miles 182° 2017-10-07 11:33:09
KL7JGS-1 3 2017-10-07 17:05:46 2017-10-15 14:20:20 DN45LP > DN45LQ 4.5 miles 340° 2017-10-07 17:05:46
KL7JGS-2 11 2017-10-07 15:59:54 2017-10-07 16:19:40 DN45KA > DN45GG 23.0 miles 316° 2017-10-07 15:59:54
MALAD 4 2017-10-07 12:22:02 2017-10-07 12:28:02 DN32VA > DN32SE 16.8 miles 313° 2017-10-07 12:22:02
KF6RAL-10 1 2017-10-07 12:49:15 2017-10-07 12:49:15 DN32VK > DN41DR 55.1 miles 154° 2017-10-07 12:49:15
KG7KCV-1 22 2017-10-07 16:39:45 2017-10-15 14:17:30 DN45IL > DN45MT 29.2 miles 33° 2017-10-07 16:39:45

Only position packets which were originated by the station are shown here. The range statistics show some extra long hops, because some digipeaters do not correctly add themselves to the digipeater path. Please check the raw packets.
About this site
This page shows real-time information collected from the Automatic Position Reporting System Internet network (APRS-IS). APRS is used by amateur (ham) radio operators to transmit real-time position information, weather data, telemetry and messages over the radio. A vehicle equipped with a GPS receiver, a VHF transmitter or HF transceiver and a small computer device called a tracker transmits it's location, speed and course in a small data packet, which is then received by a nearby iGate receiving site which forwards the packet on the Internet. Systems connected to the Internet can send information on the APRS-IS without a radio transmitter, or collect and display information transmitted anywhere in the world.
FAQ · Blog · Discussion group · Linking to aprs.fi · AIS sites · Service status · Database statistics · Advertising on aprs.fi · Technical details · API · Change log · Planned changes · Credits and thanks · Terms Of Service · iPhone/iPad APRS